الصفحة الرئيسية
METAR-TAF:

METAR-TAF

مطار :

بكين, جمهورية الصين الشعبية

مطار بكين العاصمة الدولي

دائرة عرض: 39-56N, خط طول: 116-17E, ارتفاع: 55 متر

مراقبة الطقس الحالي

تاريخ ووقت الإصدار 16 دقيقة قبل الساعة 16:00UTC
ريح 6 عقدة من الشمال
درجة الحرارة 11°درجة مئوية
الرطوبة 82%
ضغط 1022 hPa
الرؤية 10 كم أو أكثر
ملبد بالغيوم على ارتفاع 4000 قدم
مطر خفيف

METAR: ZBAA 221600Z 01003MPS 9999 -RA OVC040 11/08 Q1022 NOSIG

زمن: 00:16 (16:16 UTC)

توقعات

تاريخ ووقت الإصدار 6ساعات و 46 دقيقة قبل الساعة 09:30UTC
التوقعات صالحة من22 الساعة 12 UTC إلى 23 الساعة 12 UTC
ريح 8 عقدة من الشمال/الشمال الشرقي
الرؤية: 6000 متر

TAF: ZBAA 220930Z 2212/2312 03004MPS 6000 NSC TX17/2307Z TN12/2221Z

أرصاد الطقس والتوقعات من أكثر من 4000 مطار (تقارير الطقس للمطار METAR والتنبؤ بالطقس بالمطارTAF).

المحطات المتاحة هي النقط الصفراء والحمراء على الخريطة.

حرك المؤشر فوق النقطة لمعرفة اسم المحطة.

ثم انقر لمعرفة أرصاد وتوقعات الطقس.

لتغيير الخارطة: اضغط على الأزرار الخضراء مع رمز الصليب الأسود للتكبير. على الزر الأخضر مع شرطة للتصغير، أو على الأسهم الخضراء للخرائط المجاورة.


METAR-TAF: